Time;durP1;ratioP1;P1;durP2;ratioP2;P2;SDS_P1;SDS_P2;PMS_P1;PMS_P2;Temp;Humidity;BMP_temperature;BMP_pressure;BME280_temperature;BME280_humidity;BME280_pressure;Samples;Min_cycle;Max_cycle;Signal;HPM_P1;HPM_P2
2022/09/16 00:02:24;;;;;;;8.27;2.53;;;13.80;99.90;;;;;;20739786;28;20034;-59
2022/09/16 00:12:27;;;;;;;7.63;2.20;;;14.10;99.90;;;;;;20723140;28;20080;-48
2022/09/16 00:22:30;;;;;;;4.88;2.50;;;14.10;99.90;;;;;;20721729;28;20544;-48
2022/09/16 00:32:33;;;;;;;5.25;2.30;;;14.10;99.90;;;;;;20722224;28;20100;-59
2022/09/16 00:42:41;;;;;;;6.80;2.75;;;13.80;99.90;;;;;;20689767;28;20041;-46
2022/09/16 00:52:44;;;;;;;5.57;3.20;;;13.50;99.90;;;;;;20721292;28;20135;-47
2022/09/16 01:02:49;;;;;;;6.57;3.25;;;13.30;99.90;;;;;;20738167;28;20041;-59
2022/09/16 01:12:59;;;;;;;5.93;3.15;;;13.10;99.90;;;;;;20737180;28;20235;-59
2022/09/16 01:23:29;;;;;;;6.57;3.40;;;13.20;99.90;;;;;;20736518;28;20100;-47
2022/09/16 01:33:46;;;;;;;;;;;13.20;99.90;;;;;;20739333;28;20081;-46
2022/09/16 01:44:05;;;;;;;3.47;1.58;;;13.60;99.90;;;;;;20733886;28;19918;-47
2022/09/16 01:54:21;;;;;;;3.78;1.80;;;13.90;99.90;;;;;;20651916;28;20070;-59
2022/09/16 02:04:35;;;;;;;2.35;1.80;;;14.00;99.90;;;;;;20694872;28;20038;-58
2022/09/16 02:14:42;;;;;;;6.53;1.80;;;15.00;99.90;;;;;;20747842;28;20034;-46
2022/09/16 02:24:47;;;;;;;3.67;1.98;;;15.20;99.90;;;;;;20747309;28;20357;-45
2022/09/16 02:34:51;;;;;;;7.47;2.10;;;15.40;99.90;;;;;;20746131;28;20094;-47
2022/09/16 02:44:54;;;;;;;6.43;3.20;;;16.50;99.90;;;;;;20744732;28;20054;-45
2022/09/16 02:55:02;;;;;;;8.93;4.28;;;15.40;99.90;;;;;;20744350;28;20398;-48
2022/09/16 03:05:05;;;;;;;8.35;3.03;;;14.60;99.90;;;;;;20743781;28;20403;-48
2022/09/16 03:15:36;;;;;;;12.18;3.90;;;14.20;99.90;;;;;;20742553;28;20766;-46
2022/09/16 03:26:13;;;;;;;6.85;2.70;;;13.80;99.90;;;;;;20725888;28;20916;-45
2022/09/16 03:36:22;;;;;;;8.02;3.60;;;13.50;99.90;;;;;;20741285;28;20045;-45
2022/09/16 03:46:27;;;;;;;7.20;4.45;;;13.10;99.90;;;;;;20740420;28;20046;-58
2022/09/16 03:56:30;;;;;;;6.05;3.55;;;13.00;99.90;;;;;;20738921;28;20085;-59
2022/09/16 04:06:32;;;;;;;10.55;4.32;;;12.90;99.90;;;;;;20723377;28;20042;-45
2022/09/16 04:16:35;;;;;;;10.43;4.55;;;12.80;99.90;;;;;;20722641;28;20037;-45
2022/09/16 04:26:37;;;;;;;7.78;4.35;;;12.70;99.90;;;;;;20706616;28;20486;-46
2022/09/16 04:36:40;;;;;;;7.75;3.50;;;12.60;99.90;;;;;;20721840;28;20030;-46
2022/09/16 04:46:43;;;;;;;7.72;5.20;;;12.50;99.90;;;;;;20721428;28;20115;-59
2022/09/16 04:56:45;;;;;;;8.60;5.00;;;12.40;99.90;;;;;;20737659;28;20050;-46
2022/09/16 05:06:48;;;;;;;6.45;4.47;;;12.40;99.90;;;;;;20737177;28;20038;-59
2022/09/16 05:16:50;;;;;;;15.02;6.22;;;12.40;99.90;;;;;;20735637;28;20034;-46
2022/09/16 05:26:53;;;;;;;8.52;5.75;;;12.40;99.90;;;;;;20751585;28;20323;-47
2022/09/16 05:36:56;;;;;;;7.13;5.60;;;12.50;99.90;;;;;;20718553;28;20120;-48
2022/09/16 05:46:58;;;;;;;7.32;5.35;;;12.70;99.90;;;;;;20733888;28;20072;-47
2022/09/16 05:57:01;;;;;;;10.02;5.07;;;13.00;99.90;;;;;;20733599;28;20331;-59
2022/09/16 06:07:04;;;;;;;6.00;4.20;;;13.30;99.90;;;;;;20716347;28;20049;-45
2022/09/16 06:17:06;;;;;;;6.50;4.38;;;13.60;99.90;;;;;;20731429;28;20095;-45
2022/09/16 06:27:09;;;;;;;6.65;4.80;;;13.90;99.90;;;;;;20746426;28;20042;-47
2022/09/16 06:37:13;;;;;;;10.23;5.72;;;14.20;99.90;;;;;;20746359;28;20099;-47
2022/09/16 06:47:16;;;;;;;8.68;5.95;;;14.60;99.90;;;;;;20745301;28;20049;-59
2022/09/16 06:57:22;;;;;;;11.02;4.75;;;15.40;99.90;;;;;;20728269;28;20042;-45
2022/09/16 07:07:28;;;;;;;7.47;3.60;;;16.80;99.90;;;;;;20711300;28;20498;-46
2022/09/16 07:17:30;;;;;;;6.45;3.70;;;18.10;99.90;;;;;;20726638;28;20038;-48
2022/09/16 07:27:33;;;;;;;6.35;3.58;;;19.20;99.90;;;;;;20742597;28;20056;-46
2022/09/16 07:37:36;;;;;;;8.57;4.90;;;20.30;99.90;;;;;;20725067;28;20034;-60
2022/09/16 07:47:39;;;;;;;11.82;5.00;;;20.60;99.90;;;;;;20754017;28;20041;-60
2022/09/16 07:57:41;;;;;;;15.57;6.72;;;20.20;99.90;;;;;;20821973;28;20037;-60
2022/09/16 08:07:44;;;;;;;13.70;7.47;;;20.00;99.90;;;;;;20821354;28;20037;-60
2022/09/16 08:17:47;;;;;;;9.85;6.20;;;20.20;99.90;;;;;;20820590;28;20041;-60
2022/09/16 08:27:49;;;;;;;9.75;6.10;;;20.30;99.90;;;;;;20820425;28;20076;-60
2022/09/16 08:37:53;;;;;;;8.85;5.32;;;21.10;99.90;;;;;;20819878;28;20355;-61
2022/09/16 08:48:06;;;;;;;13.95;5.82;;;22.60;99.90;;;;;;20728361;28;20058;-46
2022/09/16 08:58:24;;;;;;;10.20;5.28;;;23.30;99.90;;;;;;20754082;28;20081;-47
2022/09/16 09:08:44;;;;;;;10.57;5.20;;;23.80;99.90;;;;;;20753239;28;20084;-46
2022/09/16 09:19:07;;;;;;;12.68;5.88;;;23.60;99.90;;;;;;20737530;28;20037;-47
2022/09/16 09:29:38;;;;;;;8.57;5.57;;;24.70;99.90;;;;;;20751879;28;20558;-46
2022/09/16 09:39:54;;;;;;;10.32;6.07;;;24.90;99.90;;;;;;20750759;28;20038;-60
2022/09/16 09:50:24;;;;;;;9.85;4.93;;;24.50;99.90;;;;;;20733444;28;20085;-46
2022/09/16 10:00:26;;;;;;;8.90;5.45;;;24.40;99.90;;;;;;20732546;28;20323;-47
2022/09/16 10:10:33;;;;;;;12.98;6.70;;;23.30;99.90;;;;;;20748527;28;20490;-60
2022/09/16 10:20:41;;;;;;;9.82;7.00;;;22.80;99.90;;;;;;20731389;28;20100;-48
2022/09/16 10:30:51;;;;;;;11.90;6.40;;;22.30;99.90;;;;;;20746741;28;20046;-46
2022/09/16 10:40:59;;;;;;;12.80;6.60;;;23.10;99.90;;;;;;20729395;28;20041;-61
2022/09/16 10:51:05;;;;;;;13.70;7.20;;;23.90;99.90;;;;;;20745040;28;20042;-60
2022/09/16 11:01:13;;;;;;;8.45;5.80;;;23.20;99.90;;;;;;20744401;28;20096;-61
2022/09/16 11:11:40;;;;;;;13.55;7.38;;;23.70;99.90;;;;;;20743292;28;20105;-51
2022/09/16 11:22:20;;;;;;;16.08;7.18;;;23.80;99.90;;;;;;20743121;28;20096;-61
2022/09/16 11:32:56;;;;;;;11.63;6.45;;;24.80;99.90;;;;;;20742617;28;20498;-61
2022/09/16 11:43:22;;;;;;;16.83;6.20;;;25.20;99.90;;;;;;20725338;28;20096;-61
2022/09/16 11:53:55;;;;;;;13.45;6.57;;;25.10;99.90;;;;;;20723660;28;20054;-60
2022/09/16 12:04:11;;;;;;;12.65;5.22;;;25.40;99.90;;;;;;20739815;28;20104;-46
2022/09/16 12:14:30;;;;;;;12.10;4.82;;;26.70;99.90;;;;;;20723041;28;20372;-48
2022/09/16 12:24:51;;;;;;;12.80;4.82;;;26.20;99.90;;;;;;20738102;28;20030;-61
2022/09/16 12:35:02;;;;;;;8.15;4.57;;;25.60;99.90;;;;;;20723081;28;20057;-61
2022/09/16 12:45:18;;;;;;;10.43;5.35;;;25.80;99.90;;;;;;20739052;28;20119;-46
2022/09/16 12:55:44;;;;;;;11.50;5.82;;;25.10;99.90;;;;;;20722204;28;20472;-61
2022/09/16 13:05:53;;;;;;;11.43;5.50;;;25.60;99.90;;;;;;20721978;28;20096;-61
2022/09/16 13:15:59;;;;;;;11.30;5.30;;;25.10;99.90;;;;;;20737859;28;20113;-47
2022/09/16 13:26:08;;;;;;;10.43;6.10;;;25.00;99.90;;;;;;20737777;28;20082;-46
2022/09/16 13:36:20;;;;;;;10.82;6.47;;;25.30;99.90;;;;;;20749440;28;20033;-61
2022/09/16 13:46:36;;;;;;;12.50;7.03;;;25.20;99.90;;;;;;20734278;28;20558;-61
2022/09/16 13:56:55;;;;;;;11.85;6.30;;;24.50;99.90;;;;;;20750466;28;20030;-47
2022/09/16 14:07:18;;;;;;;13.73;8.60;;;23.40;99.90;;;;;;20733268;28;20034;-46
2022/09/16 14:17:28;;;;;;;12.65;8.70;;;22.60;99.90;;;;;;20748684;28;20107;-49
2022/09/16 14:27:35;;;;;;;14.23;9.30;;;22.20;99.90;;;;;;20731814;28;20038;-60
2022/09/16 14:37:38;;;;;;;15.95;9.88;;;21.20;99.90;;;;;;20747028;28;20089;-48
2022/09/16 14:47:44;;;;;;;17.40;10.40;;;20.10;99.90;;;;;;20729038;28;20042;-47
2022/09/16 14:57:47;;;;;;;15.85;11.20;;;19.40;99.90;;;;;;20745883;28;20560;-60
2022/09/16 15:07:53;;;;;;;13.80;9.57;;;19.00;99.90;;;;;;20744886;28;20045;-49
2022/09/16 15:17:59;;;;;;;18.52;11.35;;;18.90;99.90;;;;;;20727771;28;20097;-47
2022/09/16 15:28:16;;;;;;;17.83;12.38;;;18.80;99.90;;;;;;20727291;28;20402;-60
2022/09/16 15:38:21;;;;;;;16.10;11.25;;;18.80;99.90;;;;;;20726168;28;20034;-59
2022/09/16 15:48:31;;;;;;;16.40;11.50;;;18.60;99.90;;;;;;20725194;28;20085;-47
2022/09/16 15:58:40;;;;;;;18.15;12.73;;;18.50;99.90;;;;;;20725168;28;20483;-48
2022/09/16 16:08:50;;;;;;;17.63;10.48;;;18.40;99.90;;;;;;20740781;28;20057;-48
2022/09/16 16:18:53;;;;;;;20.15;10.77;;;18.30;99.90;;;;;;20723554;28;20411;-47
2022/09/16 16:28:55;;;;;;;17.50;10.60;;;18.10;99.90;;;;;;20740507;28;20045;-49
2022/09/16 16:38:58;;;;;;;19.58;11.43;;;17.90;99.90;;;;;;20738545;28;20038;-47
2022/09/16 16:49:01;;;;;;;16.10;11.30;;;17.80;99.90;;;;;;20739208;28;20042;-59
2022/09/16 16:59:07;;;;;;;20.75;11.98;;;17.60;99.90;;;;;;20721570;28;20050;-47
2022/09/16 17:09:11;;;;;;;18.67;12.73;;;17.30;99.90;;;;;;20731917;28;20038;-47
2022/09/16 17:19:15;;;;;;;18.77;12.70;;;17.10;99.90;;;;;;20736437;28;20042;-58
2022/09/16 17:29:18;;;;;;;17.83;10.35;;;16.90;99.90;;;;;;20751734;28;20453;-46
2022/09/16 17:39:21;;;;;;;20.33;10.38;;;16.80;99.90;;;;;;20734812;28;20038;-47
2022/09/16 17:49:24;;;;;;;14.10;8.23;;;16.60;99.90;;;;;;20749625;28;20112;-49
2022/09/16 17:59:29;;;;;;;12.55;8.07;;;16.50;99.90;;;;;;20717926;28;20042;-47
2022/09/16 18:09:32;;;;;;;16.02;8.30;;;16.40;99.90;;;;;;20749334;28;20080;-46
2022/09/16 18:19:34;;;;;;;15.60;9.75;;;16.40;99.90;;;;;;20731208;28;20065;-59
2022/09/16 18:29:38;;;;;;;20.30;10.88;;;16.40;99.90;;;;;;20747942;28;20475;-47
2022/09/16 18:39:41;;;;;;;20.63;13.70;;;16.50;99.90;;;;;;20730822;28;20034;-59
2022/09/16 18:49:43;;;;;;;22.85;15.57;;;16.40;99.90;;;;;;20729827;28;20558;-48
2022/09/16 18:59:46;;;;;;;24.85;18.40;;;16.40;99.90;;;;;;20729140;28;20042;-47
2022/09/16 19:09:49;;;;;;;24.33;20.63;;;16.30;99.90;;;;;;20744977;28;20077;-48
2022/09/16 19:19:52;;;;;;;35.45;24.88;;;16.30;99.90;;;;;;20743880;28;20038;-48
2022/09/16 19:29:55;;;;;;;26.83;17.90;;;16.30;99.90;;;;;;20726654;28;20069;-47
2022/09/16 19:39:58;;;;;;;23.98;16.77;;;16.30;99.90;;;;;;20742650;28;20041;-47
2022/09/16 19:50:01;;;;;;;23.55;17.95;;;16.30;99.90;;;;;;20725274;28;20058;-59
2022/09/16 20:00:12;;;;;;;23.48;16.95;;;16.20;99.90;;;;;;20724898;28;20046;-46
2022/09/16 20:10:17;;;;;;;27.67;15.18;;;16.10;99.90;;;;;;20742175;28;20092;-47
2022/09/16 20:20:21;;;;;;;18.27;13.93;;;15.80;99.90;;;;;;20740067;28;20034;-59
2022/09/16 20:30:24;;;;;;;20.17;14.85;;;15.80;99.90;;;;;;20739888;28;20045;-59
2022/09/16 20:40:26;;;;;;;21.73;14.43;;;15.70;99.90;;;;;;20727894;28;20038;-59
2022/09/16 20:50:29;;;;;;;20.98;14.02;;;15.70;99.90;;;;;;20756036;28;20104;-59
2022/09/16 21:00:32;;;;;;;20.20;14.20;;;15.70;99.90;;;;;;20754880;28;20045;-46
2022/09/16 21:10:39;;;;;;;19.73;13.80;;;15.70;99.90;;;;;;20737947;28;20103;-59
2022/09/16 21:20:42;;;;;;;25.90;12.75;;;15.60;99.90;;;;;;20736961;28;20546;-59
2022/09/16 21:30:45;;;;;;;20.02;13.40;;;15.60;99.90;;;;;;20736247;28;20116;-46
2022/09/16 21:40:59;;;;;;;15.15;11.15;;;15.60;99.90;;;;;;20751737;28;20482;-47
2022/09/16 21:51:04;;;;;;;21.17;15.38;;;15.60;99.90;;;;;;20750481;28;20041;-47
2022/09/16 22:01:17;;;;;;;24.70;16.15;;;15.50;99.90;;;;;;20750166;28;20042;-45
2022/09/16 22:11:23;;;;;;;22.15;16.23;;;15.50;99.90;;;;;;20733378;28;20034;-59
2022/09/16 22:21:29;;;;;;;30.85;19.65;;;15.50;99.90;;;;;;20748811;28;20486;-46
2022/09/16 22:31:35;;;;;;;20.73;14.48;;;15.40;99.90;;;;;;20731910;28;20065;-59
2022/09/16 22:41:37;;;;;;;8.52;5.63;;;15.10;99.90;;;;;;20714891;28;20038;-59
2022/09/16 22:51:40;;;;;;;10.82;7.78;;;14.70;99.90;;;;;;20729023;28;20064;-59
2022/09/16 23:01:43;;;;;;;6.25;3.08;;;14.20;99.90;;;;;;20744818;28;20093;-46
2022/09/16 23:11:46;;;;;;;8.70;5.28;;;13.60;99.90;;;;;;20744922;28;20042;-60
2022/09/16 23:21:49;;;;;;;4.43;3.50;;;12.50;99.90;;;;;;20727614;28;20478;-47
2022/09/16 23:31:51;;;;;;;2.45;1.65;;;11.90;99.90;;;;;;20727069;28;20034;-60
2022/09/16 23:41:55;;;;;;;1.70;1.30;;;11.30;99.90;;;;;;20742542;28;20038;-60
2022/09/16 23:51:57;;;;;;;2.47;1.52;;;11.10;99.90;;;;;;20725280;28;20096;-60
